sensor_id;sensor_type;location;lat;lon;timestamp;pressure;altitude;pressure_sealevel;temperature;humidity
6024;BME280;3040;42.654;23.296;2023-04-24T00:01:59;93997.94;;;13.77;61.85
6024;BME280;3040;42.654;23.296;2023-04-24T00:04:26;93990.47;;;13.94;60.33
6024;BME280;3040;42.654;23.296;2023-04-24T00:06:53;93954.47;;;13.84;61.57
6024;BME280;3040;42.654;23.296;2023-04-24T00:09:22;93990.25;;;13.76;61.09
6024;BME280;3040;42.654;23.296;2023-04-24T00:11:51;93985.59;;;13.69;59.46
6024;BME280;3040;42.654;23.296;2023-04-24T00:14:18;93988.13;;;13.89;59.89
6024;BME280;3040;42.654;23.296;2023-04-24T00:16:45;93980.31;;;13.73;59.98
6024;BME280;3040;42.654;23.296;2023-04-24T00:19:11;93951.19;;;13.64;58.15
6024;BME280;3040;42.654;23.296;2023-04-24T00:21:38;93975.31;;;14.01;57.63
6024;BME280;3040;42.654;23.296;2023-04-24T00:24:06;93970.13;;;14.15;58.94
6024;BME280;3040;42.654;23.296;2023-04-24T00:26:34;93950.78;;;13.92;59.38
6024;BME280;3040;42.654;23.296;2023-04-24T00:29:02;93968.31;;;13.93;59.74
6024;BME280;3040;42.654;23.296;2023-04-24T00:31:29;93976.19;;;13.23;61.73
6024;BME280;3040;42.654;23.296;2023-04-24T00:33:56;93980.72;;;12.96;62.36
6024;BME280;3040;42.654;23.296;2023-04-24T00:36:24;93978.63;;;12.86;62.18
6024;BME280;3040;42.654;23.296;2023-04-24T00:38:52;93986.16;;;12.57;63.86
6024;BME280;3040;42.654;23.296;2023-04-24T00:41:20;93977.50;;;12.41;64.19
6024;BME280;3040;42.654;23.296;2023-04-24T00:43:47;93972.69;;;12.28;64.37
6024;BME280;3040;42.654;23.296;2023-04-24T00:46:16;93964.34;;;12.52;65.01
6024;BME280;3040;42.654;23.296;2023-04-24T00:48:43;93981.41;;;12.93;64.15
6024;BME280;3040;42.654;23.296;2023-04-24T00:51:10;93972.47;;;12.59;65.14
6024;BME280;3040;42.654;23.296;2023-04-24T00:53:37;93977.50;;;12.87;64.52
6024;BME280;3040;42.654;23.296;2023-04-24T00:56:04;93981.84;;;12.95;64.37
6024;BME280;3040;42.654;23.296;2023-04-24T00:58:32;93972.72;;;13.22;64.42
6024;BME280;3040;42.654;23.296;2023-04-24T01:00:59;93974.19;;;13.16;62.34
6024;BME280;3040;42.654;23.296;2023-04-24T01:03:30;93968.53;;;12.98;63.64
6024;BME280;3040;42.654;23.296;2023-04-24T01:05:58;93965.66;;;13.33;64.10
6024;BME280;3040;42.654;23.296;2023-04-24T01:08:26;93962.44;;;13.51;63.39
6024;BME280;3040;42.654;23.296;2023-04-24T01:10:55;93958.88;;;13.69;65.53
6024;BME280;3040;42.654;23.296;2023-04-24T01:13:23;93959.84;;;13.84;64.86
6024;BME280;3040;42.654;23.296;2023-04-24T01:15:50;93934.75;;;13.96;67.11
6024;BME280;3040;42.654;23.296;2023-04-24T01:18:17;93937.50;;;14.03;67.25
6024;BME280;3040;42.654;23.296;2023-04-24T01:20:45;93947.63;;;13.57;69.41
6024;BME280;3040;42.654;23.296;2023-04-24T01:23:14;93941.19;;;13.05;68.89
6024;BME280;3040;42.654;23.296;2023-04-24T01:25:42;93940.19;;;12.90;67.21
6024;BME280;3040;42.654;23.296;2023-04-24T01:28:09;93900.94;;;12.91;67.73
6024;BME280;3040;42.654;23.296;2023-04-24T01:30:36;93940.59;;;13.15;68.47
6024;BME280;3040;42.654;23.296;2023-04-24T01:33:03;93936.44;;;12.69;69.68
6024;BME280;3040;42.654;23.296;2023-04-24T01:35:30;93935.63;;;12.91;69.12
6024;BME280;3040;42.654;23.296;2023-04-24T01:37:58;93936.66;;;13.09;69.60
6024;BME280;3040;42.654;23.296;2023-04-24T01:40:26;93944.28;;;13.07;69.26
6024;BME280;3040;42.654;23.296;2023-04-24T01:42:53;93941.00;;;13.17;69.55
6024;BME280;3040;42.654;23.296;2023-04-24T01:45:20;93931.81;;;13.15;67.37
6024;BME280;3040;42.654;23.296;2023-04-24T01:47:47;93910.09;;;13.16;69.66
6024;BME280;3040;42.654;23.296;2023-04-24T01:50:14;93937.31;;;13.02;71.08
6024;BME280;3040;42.654;23.296;2023-04-24T01:52:41;93934.50;;;12.92;69.42
6024;BME280;3040;42.654;23.296;2023-04-24T01:55:09;93926.13;;;12.93;69.14
6024;BME280;3040;42.654;23.296;2023-04-24T01:57:38;93928.81;;;12.93;69.06
6024;BME280;3040;42.654;23.296;2023-04-24T02:00:06;93927.72;;;12.98;68.75
6024;BME280;3040;42.654;23.296;2023-04-24T02:02:33;93929.78;;;13.08;70.12
6024;BME280;3040;42.654;23.296;2023-04-24T02:05:00;93935.53;;;13.10;69.71
6024;BME280;3040;42.654;23.296;2023-04-24T02:07:28;93918.69;;;12.80;68.95
6024;BME280;3040;42.654;23.296;2023-04-24T02:09:55;93895.72;;;12.72;69.45
6024;BME280;3040;42.654;23.296;2023-04-24T02:12:21;93931.31;;;13.09;68.37
6024;BME280;3040;42.654;23.296;2023-04-24T02:14:50;93935.53;;;12.84;67.05
6024;BME280;3040;42.654;23.296;2023-04-24T02:17:17;93840.53;;;12.30;67.45
6024;BME280;3040;42.654;23.296;2023-04-24T02:19:44;93927.53;;;12.15;70.77
6024;BME280;3040;42.654;23.296;2023-04-24T02:22:11;93921.47;;;11.76;74.14
6024;BME280;3040;42.654;23.296;2023-04-24T02:24:38;93914.66;;;11.06;77.11
6024;BME280;3040;42.654;23.296;2023-04-24T02:27:05;93885.88;;;10.76;77.99
6024;BME280;3040;42.654;23.296;2023-04-24T02:29:32;93850.41;;;10.53;77.79
6024;BME280;3040;42.654;23.296;2023-04-24T02:32:00;93915.03;;;10.88;77.81
6024;BME280;3040;42.654;23.296;2023-04-24T02:34:27;93910.16;;;10.90;78.60
6024;BME280;3040;42.654;23.296;2023-04-24T02:36:55;93904.97;;;11.32;77.34
6024;BME280;3040;42.654;23.296;2023-04-24T02:39:22;93863.63;;;11.38;75.97
6024;BME280;3040;42.654;23.296;2023-04-24T02:41:49;93899.59;;;11.87;74.95
6024;BME280;3040;42.654;23.296;2023-04-24T02:44:15;93903.00;;;11.68;74.84
6024;BME280;3040;42.654;23.296;2023-04-24T02:46:43;93900.41;;;11.52;74.85
6024;BME280;3040;42.654;23.296;2023-04-24T02:49:11;93890.91;;;12.12;74.41
6024;BME280;3040;42.654;23.296;2023-04-24T02:51:38;93875.28;;;12.11;73.26
6024;BME280;3040;42.654;23.296;2023-04-24T02:54:07;93906.34;;;12.22;72.33
6024;BME280;3040;42.654;23.296;2023-04-24T02:56:34;93893.03;;;12.03;73.65
6024;BME280;3040;42.654;23.296;2023-04-24T02:59:02;93897.47;;;11.96;73.83
6024;BME280;3040;42.654;23.296;2023-04-24T03:01:29;93906.13;;;12.12;72.40
6024;BME280;3040;42.654;23.296;2023-04-24T03:03:56;93910.34;;;12.36;72.42
6024;BME280;3040;42.654;23.296;2023-04-24T03:06:24;93914.53;;;12.14;70.65
6024;BME280;3040;42.654;23.296;2023-04-24T03:08:52;93916.13;;;11.96;71.68
6024;BME280;3040;42.654;23.296;2023-04-24T03:11:19;93909.66;;;11.58;73.54
6024;BME280;3040;42.654;23.296;2023-04-24T03:13:46;93911.44;;;11.16;74.91
6024;BME280;3040;42.654;23.296;2023-04-24T03:16:13;93913.16;;;11.43;74.60
6024;BME280;3040;42.654;23.296;2023-04-24T03:18:40;93917.25;;;11.75;73.68
6024;BME280;3040;42.654;23.296;2023-04-24T03:21:06;93922.28;;;11.42;72.81
6024;BME280;3040;42.654;23.296;2023-04-24T03:23:35;93918.94;;;11.10;74.58
6024;BME280;3040;42.654;23.296;2023-04-24T03:26:01;93885.72;;;11.04;75.69
6024;BME280;3040;42.654;23.296;2023-04-24T03:28:28;93912.19;;;11.32;73.66
6024;BME280;3040;42.654;23.296;2023-04-24T03:30:55;93917.38;;;11.44;73.87
6024;BME280;3040;42.654;23.296;2023-04-24T03:33:22;93915.38;;;11.22;72.68
6024;BME280;3040;42.654;23.296;2023-04-24T03:35:49;93917.63;;;11.20;73.22
6024;BME280;3040;42.654;23.296;2023-04-24T03:38:15;93889.97;;;10.89;73.58
6024;BME280;3040;42.654;23.296;2023-04-24T03:40:44;93917.78;;;11.46;74.03
6024;BME280;3040;42.654;23.296;2023-04-24T03:43:10;93915.44;;;11.79;72.86
6024;BME280;3040;42.654;23.296;2023-04-24T03:45:37;93912.75;;;11.99;71.95
6024;BME280;3040;42.654;23.296;2023-04-24T03:48:04;93913.13;;;12.20;71.80
6024;BME280;3040;42.654;23.296;2023-04-24T03:50:31;93895.78;;;12.30;71.20
6024;BME280;3040;42.654;23.296;2023-04-24T03:52:58;93913.31;;;12.53;71.11
6024;BME280;3040;42.654;23.296;2023-04-24T03:55:25;93921.03;;;12.58;70.63
6024;BME280;3040;42.654;23.296;2023-04-24T03:57:53;93805.31;;;11.95;69.31
6024;BME280;3040;42.654;23.296;2023-04-24T04:00:20;93917.66;;;12.88;69.73
6024;BME280;3040;42.654;23.296;2023-04-24T04:02:47;93917.34;;;12.93;68.30
6024;BME280;3040;42.654;23.296;2023-04-24T04:05:14;93922.06;;;13.03;68.98
6024;BME280;3040;42.654;23.296;2023-04-24T04:07:40;93927.97;;;13.12;68.31
6024;BME280;3040;42.654;23.296;2023-04-24T04:10:07;93914.00;;;13.22;67.82
6024;BME280;3040;42.654;23.296;2023-04-24T04:12:34;93920.63;;;13.32;67.93
6024;BME280;3040;42.654;23.296;2023-04-24T04:15:03;93915.78;;;13.41;68.19
6024;BME280;3040;42.654;23.296;2023-04-24T04:17:31;93882.75;;;13.26;68.19
6024;BME280;3040;42.654;23.296;2023-04-24T04:19:58;93909.09;;;13.58;68.85
6024;BME280;3040;42.654;23.296;2023-04-24T04:22:25;93929.03;;;13.64;67.93
6024;BME280;3040;42.654;23.296;2023-04-24T04:24:52;93922.66;;;13.72;67.12
6024;BME280;3040;42.654;23.296;2023-04-24T04:27:20;93909.53;;;13.60;66.36
6024;BME280;3040;42.654;23.296;2023-04-24T04:29:46;93920.16;;;13.86;67.01
6024;BME280;3040;42.654;23.296;2023-04-24T04:32:15;93920.97;;;13.94;67.49
6024;BME280;3040;42.654;23.296;2023-04-24T04:34:42;93917.25;;;14.02;67.33
6024;BME280;3040;42.654;23.296;2023-04-24T04:37:11;93925.63;;;14.00;64.90
6024;BME280;3040;42.654;23.296;2023-04-24T04:39:38;93932.59;;;14.08;64.62
6024;BME280;3040;42.654;23.296;2023-04-24T04:42:05;93918.44;;;14.04;63.72
6024;BME280;3040;42.654;23.296;2023-04-24T04:44:34;93947.19;;;14.14;63.58
6024;BME280;3040;42.654;23.296;2023-04-24T04:47:01;93943.38;;;13.82;62.39
6024;BME280;3040;42.654;23.296;2023-04-24T04:49:32;93946.47;;;13.54;62.24
6024;BME280;3040;42.654;23.296;2023-04-24T04:51:59;93954.16;;;13.29;62.80
6024;BME280;3040;42.654;23.296;2023-04-24T04:54:26;93953.84;;;12.85;64.45
6024;BME280;3040;42.654;23.296;2023-04-24T04:56:53;93960.25;;;12.58;64.63
6024;BME280;3040;42.654;23.296;2023-04-24T04:59:20;93948.44;;;12.36;65.76
6024;BME280;3040;42.654;23.296;2023-04-24T05:01:47;93950.47;;;12.43;65.94
6024;BME280;3040;42.654;23.296;2023-04-24T05:04:14;93951.41;;;12.31;65.41
6024;BME280;3040;42.654;23.296;2023-04-24T05:06:45;93950.19;;;12.06;67.65
6024;BME280;3040;42.654;23.296;2023-04-24T05:09:12;93956.38;;;12.10;67.34
6024;BME280;3040;42.654;23.296;2023-04-24T05:11:39;93954.97;;;12.16;66.59
6024;BME280;3040;42.654;23.296;2023-04-24T05:14:06;93922.84;;;11.70;68.63
6024;BME280;3040;42.654;23.296;2023-04-24T05:16:33;93829.84;;;11.04;68.46
6024;BME280;3040;42.654;23.296;2023-04-24T05:19:00;93962.09;;;12.12;68.16
6024;BME280;3040;42.654;23.296;2023-04-24T05:21:27;93958.16;;;12.25;67.78
6024;BME280;3040;42.654;23.296;2023-04-24T05:23:56;93961.75;;;12.55;67.56
6024;BME280;3040;42.654;23.296;2023-04-24T05:26:23;93964.47;;;12.82;66.80
6024;BME280;3040;42.654;23.296;2023-04-24T05:28:49;93951.91;;;13.09;65.45
6024;BME280;3040;42.654;23.296;2023-04-24T05:31:16;93960.72;;;13.35;63.71
6024;BME280;3040;42.654;23.296;2023-04-24T05:33:43;93954.13;;;13.56;62.49
6024;BME280;3040;42.654;23.296;2023-04-24T05:36:11;93951.69;;;13.73;60.90
6024;BME280;3040;42.654;23.296;2023-04-24T05:38:38;93960.63;;;13.88;59.94
6024;BME280;3040;42.654;23.296;2023-04-24T05:41:06;93950.88;;;14.03;60.14
6024;BME280;3040;42.654;23.296;2023-04-24T05:43:33;93960.16;;;14.12;57.41
6024;BME280;3040;42.654;23.296;2023-04-24T05:45:59;93932.13;;;13.99;59.09
6024;BME280;3040;42.654;23.296;2023-04-24T05:48:26;93961.16;;;14.34;58.75
6024;BME280;3040;42.654;23.296;2023-04-24T05:50:53;93963.59;;;14.46;58.42
6024;BME280;3040;42.654;23.296;2023-04-24T05:53:20;93957.22;;;14.58;57.30
6024;BME280;3040;42.654;23.296;2023-04-24T05:55:47;93835.06;;;13.95;58.05
6024;BME280;3040;42.654;23.296;2023-04-24T05:58:15;93952.13;;;14.90;56.38
6024;BME280;3040;42.654;23.296;2023-04-24T06:00:42;93957.97;;;15.02;56.33
6024;BME280;3040;42.654;23.296;2023-04-24T06:03:11;93963.38;;;15.13;55.23
6024;BME280;3040;42.654;23.296;2023-04-24T06:05:38;93953.13;;;15.19;56.14
6024;BME280;3040;42.654;23.296;2023-04-24T06:08:05;93958.50;;;15.26;55.09
6024;BME280;3040;42.654;23.296;2023-04-24T06:10:32;93957.88;;;15.43;53.75
6024;BME280;3040;42.654;23.296;2023-04-24T06:12:59;93952.16;;;15.52;53.93
6024;BME280;3040;42.654;23.296;2023-04-24T06:15:29;93948.25;;;15.38;53.76
6024;BME280;3040;42.654;23.296;2023-04-24T06:17:57;93952.16;;;15.52;55.11
6024;BME280;3040;42.654;23.296;2023-04-24T06:20:24;93959.09;;;15.56;52.88
6024;BME280;3040;42.654;23.296;2023-04-24T06:22:51;93963.41;;;15.71;52.11
6024;BME280;3040;42.654;23.296;2023-04-24T06:25:19;93955.81;;;15.87;51.44
6024;BME280;3040;42.654;23.296;2023-04-24T06:27:46;93934.38;;;15.95;52.67
6024;BME280;3040;42.654;23.296;2023-04-24T06:30:13;93922.50;;;15.88;50.66
6024;BME280;3040;42.654;23.296;2023-04-24T06:32:41;93957.88;;;16.26;51.86
6024;BME280;3040;42.654;23.296;2023-04-24T06:35:08;93961.41;;;16.51;51.84
6024;BME280;3040;42.654;23.296;2023-04-24T06:37:36;93959.53;;;16.62;50.70
6024;BME280;3040;42.654;23.296;2023-04-24T06:40:04;93930.28;;;16.33;49.53
6024;BME280;3040;42.654;23.296;2023-04-24T06:42:31;93965.66;;;16.63;50.59
6024;BME280;3040;42.654;23.296;2023-04-24T06:44:59;93967.94;;;16.64;51.10
6024;BME280;3040;42.654;23.296;2023-04-24T06:47:26;93952.59;;;16.65;50.18
6024;BME280;3040;42.654;23.296;2023-04-24T06:49:54;93965.66;;;16.88;49.04
6024;BME280;3040;42.654;23.296;2023-04-24T06:52:21;93960.31;;;16.81;49.58
6024;BME280;3040;42.654;23.296;2023-04-24T06:54:48;93966.44;;;17.06;49.12
6024;BME280;3040;42.654;23.296;2023-04-24T06:57:15;93946.50;;;16.96;47.18
6024;BME280;3040;42.654;23.296;2023-04-24T06:59:42;93923.47;;;17.02;47.88
6024;BME280;3040;42.654;23.296;2023-04-24T07:02:09;93958.00;;;17.18;48.85
6024;BME280;3040;42.654;23.296;2023-04-24T07:04:36;93949.56;;;17.27;49.52
6024;BME280;3040;42.654;23.296;2023-04-24T07:07:04;93950.31;;;17.27;48.88
6024;BME280;3040;42.654;23.296;2023-04-24T07:09:32;93947.19;;;17.50;47.17
6024;BME280;3040;42.654;23.296;2023-04-24T07:12:00;93935.66;;;17.71;47.62
6024;BME280;3040;42.654;23.296;2023-04-24T07:14:27;93944.94;;;17.13;48.06
6024;BME280;3040;42.654;23.296;2023-04-24T07:16:54;93941.09;;;17.25;49.04
6024;BME280;3040;42.654;23.296;2023-04-24T07:19:22;93916.47;;;17.55;48.34
6024;BME280;3040;42.654;23.296;2023-04-24T07:21:49;93947.91;;;17.86;48.88
6024;BME280;3040;42.654;23.296;2023-04-24T07:24:17;93923.22;;;18.05;47.68
6024;BME280;3040;42.654;23.296;2023-04-24T07:26:44;93932.38;;;18.25;46.53
6024;BME280;3040;42.654;23.296;2023-04-24T07:29:12;93927.66;;;18.40;46.61
6024;BME280;3040;42.654;23.296;2023-04-24T07:31:39;93933.72;;;18.62;45.73
6024;BME280;3040;42.654;23.296;2023-04-24T07:34:07;93925.88;;;18.85;45.22
6024;BME280;3040;42.654;23.296;2023-04-24T07:36:34;93925.69;;;19.06;44.81
6024;BME280;3040;42.654;23.296;2023-04-24T07:39:01;93923.16;;;19.30;44.64
6024;BME280;3040;42.654;23.296;2023-04-24T07:41:29;93927.28;;;19.45;43.91
6024;BME280;3040;42.654;23.296;2023-04-24T07:43:56;93913.78;;;19.45;43.04
6024;BME280;3040;42.654;23.296;2023-04-24T07:46:23;93811.88;;;18.88;42.79
6024;BME280;3040;42.654;23.296;2023-04-24T07:48:50;93918.53;;;19.71;42.85
6024;BME280;3040;42.654;23.296;2023-04-24T07:51:17;93898.16;;;19.67;40.75
6024;BME280;3040;42.654;23.296;2023-04-24T07:53:44;93887.38;;;19.67;42.07
6024;BME280;3040;42.654;23.296;2023-04-24T07:56:11;93901.06;;;19.49;42.38
6024;BME280;3040;42.654;23.296;2023-04-24T07:58:39;93904.28;;;19.71;42.64
6024;BME280;3040;42.654;23.296;2023-04-24T08:01:06;93912.28;;;19.40;42.80
6024;BME280;3040;42.654;23.296;2023-04-24T08:03:33;93906.69;;;19.62;43.07
6024;BME280;3040;42.654;23.296;2023-04-24T08:06:00;93901.31;;;19.62;42.51
6024;BME280;3040;42.654;23.296;2023-04-24T08:08:27;93897.09;;;19.91;42.84
6024;BME280;3040;42.654;23.296;2023-04-24T08:10:54;93894.72;;;19.97;42.12
6024;BME280;3040;42.654;23.296;2023-04-24T08:13:22;93905.75;;;19.38;42.67
6024;BME280;3040;42.654;23.296;2023-04-24T08:15:50;93893.41;;;18.99;43.00
6024;BME280;3040;42.654;23.296;2023-04-24T08:18:16;93898.16;;;18.81;43.95
6024;BME280;3040;42.654;23.296;2023-04-24T08:20:43;93893.59;;;19.23;43.56
6024;BME280;3040;42.654;23.296;2023-04-24T08:23:11;93894.31;;;19.27;42.30
6024;BME280;3040;42.654;23.296;2023-04-24T08:25:37;93889.50;;;19.45;43.28
6024;BME280;3040;42.654;23.296;2023-04-24T08:28:06;93887.88;;;19.58;43.97
6024;BME280;3040;42.654;23.296;2023-04-24T08:30:33;93886.50;;;19.77;42.42
6024;BME280;3040;42.654;23.296;2023-04-24T08:33:01;93877.19;;;19.81;43.04
6024;BME280;3040;42.654;23.296;2023-04-24T08:35:28;93885.81;;;20.00;41.00
6024;BME280;3040;42.654;23.296;2023-04-24T08:37:55;93881.22;;;20.27;42.30
6024;BME280;3040;42.654;23.296;2023-04-24T08:40:25;93868.41;;;20.61;40.59
6024;BME280;3040;42.654;23.296;2023-04-24T08:42:54;93876.66;;;20.78;39.22
6024;BME280;3040;42.654;23.296;2023-04-24T08:45:23;93874.22;;;20.33;39.91
6024;BME280;3040;42.654;23.296;2023-04-24T08:47:52;93868.53;;;20.24;40.47
6024;BME280;3040;42.654;23.296;2023-04-24T08:50:21;93865.06;;;20.23;40.10
6024;BME280;3040;42.654;23.296;2023-04-24T08:52:49;93858.00;;;20.03;40.90
6024;BME280;3040;42.654;23.296;2023-04-24T08:55:18;93860.34;;;20.31;39.91
6024;BME280;3040;42.654;23.296;2023-04-24T08:57:46;93851.59;;;20.50;41.75
6024;BME280;3040;42.654;23.296;2023-04-24T09:00:17;93860.50;;;21.21;39.76
6024;BME280;3040;42.654;23.296;2023-04-24T09:02:45;93859.50;;;21.74;37.31
6024;BME280;3040;42.654;23.296;2023-04-24T09:05:13;93857.09;;;21.99;38.11
6024;BME280;3040;42.654;23.296;2023-04-24T09:07:45;93843.41;;;22.42;35.71
6024;BME280;3040;42.654;23.296;2023-04-24T09:10:17;93836.06;;;21.87;36.43
6024;BME280;3040;42.654;23.296;2023-04-24T09:12:44;93839.88;;;21.70;36.78
6024;BME280;3040;42.654;23.296;2023-04-24T09:15:11;93841.81;;;22.09;36.53
6024;BME280;3040;42.654;23.296;2023-04-24T09:17:40;93836.50;;;22.21;35.67
6024;BME280;3040;42.654;23.296;2023-04-24T09:20:08;93826.66;;;22.11;36.97
6024;BME280;3040;42.654;23.296;2023-04-24T09:22:35;93829.41;;;22.44;37.36
6024;BME280;3040;42.654;23.296;2023-04-24T09:25:07;93817.59;;;22.54;35.70
6024;BME280;3040;42.654;23.296;2023-04-24T09:27:34;93825.22;;;22.75;35.53
6024;BME280;3040;42.654;23.296;2023-04-24T09:30:02;93824.38;;;22.78;35.92
6024;BME280;3040;42.654;23.296;2023-04-24T09:32:29;93816.06;;;22.85;34.76
6024;BME280;3040;42.654;23.296;2023-04-24T09:35:08;93691.91;;;22.31;35.20
6024;BME280;3040;42.654;23.296;2023-04-24T09:37:36;93815.38;;;23.13;34.26
6024;BME280;3040;42.654;23.296;2023-04-24T09:40:15;93811.53;;;23.11;34.36
6024;BME280;3040;42.654;23.296;2023-04-24T09:42:46;93794.38;;;23.01;35.10
6024;BME280;3040;42.654;23.296;2023-04-24T09:45:13;93809.81;;;22.88;34.65
6024;BME280;3040;42.654;23.296;2023-04-24T09:47:40;93820.00;;;21.76;37.09
6024;BME280;3040;42.654;23.296;2023-04-24T09:50:15;93805.03;;;22.27;36.09
6024;BME280;3040;42.654;23.296;2023-04-24T09:52:43;93806.41;;;22.52;35.38
6024;BME280;3040;42.654;23.296;2023-04-24T09:55:11;93798.34;;;22.48;35.79
6024;BME280;3040;42.654;23.296;2023-04-24T09:57:48;93805.53;;;22.55;35.89
6024;BME280;3040;42.654;23.296;2023-04-24T10:00:22;93755.75;;;22.16;36.24
6024;BME280;3040;42.654;23.296;2023-04-24T10:02:59;93791.16;;;22.90;35.80
6024;BME280;3040;42.654;23.296;2023-04-24T10:05:30;93783.19;;;23.57;33.57
6024;BME280;3040;42.654;23.296;2023-04-24T10:08:00;93655.28;;;23.01;33.39
6024;BME280;3040;42.654;23.296;2023-04-24T10:10:27;93765.88;;;24.18;32.50
6024;BME280;3040;42.654;23.296;2023-04-24T10:12:56;93768.19;;;24.45;31.42
6024;BME280;3040;42.654;23.296;2023-04-24T10:15:24;93756.16;;;23.25;33.68
6024;BME280;3040;42.654;23.296;2023-04-24T10:17:52;93754.56;;;23.81;32.53
6024;BME280;3040;42.654;23.296;2023-04-24T10:20:20;93760.00;;;24.07;31.01
6024;BME280;3040;42.654;23.296;2023-04-24T10:22:48;93762.00;;;24.19;31.67
6024;BME280;3040;42.654;23.296;2023-04-24T10:25:19;93763.59;;;24.67;30.25
6024;BME280;3040;42.654;23.296;2023-04-24T10:27:47;93726.50;;;24.60;30.72
6024;BME280;3040;42.654;23.296;2023-04-24T10:30:16;93747.44;;;24.38;30.34
6024;BME280;3040;42.654;23.296;2023-04-24T10:32:44;93732.41;;;24.46;30.84
6024;BME280;3040;42.654;23.296;2023-04-24T10:35:12;93648.72;;;24.41;30.94
6024;BME280;3040;42.654;23.296;2023-04-24T10:37:43;93727.50;;;25.01;30.90
6024;BME280;3040;42.654;23.296;2023-04-24T10:40:11;93737.25;;;25.11;29.57
6024;BME280;3040;42.654;23.296;2023-04-24T10:42:42;93733.63;;;24.80;29.83
6024;BME280;3040;42.654;23.296;2023-04-24T10:45:18;93724.34;;;25.24;28.50
6024;BME280;3040;42.654;23.296;2023-04-24T10:47:54;93736.78;;;25.25;29.31
6024;BME280;3040;42.654;23.296;2023-04-24T10:50:23;93730.34;;;24.85;28.69
6024;BME280;3040;42.654;23.296;2023-04-24T10:52:50;93722.31;;;24.94;29.93
6024;BME280;3040;42.654;23.296;2023-04-24T10:55:39;93718.84;;;24.81;28.67
6024;BME280;3040;42.654;23.296;2023-04-24T10:58:06;93714.34;;;25.21;27.44
6024;BME280;3040;42.654;23.296;2023-04-24T11:00:36;93714.78;;;25.63;28.24
6024;BME280;3040;42.654;23.296;2023-04-24T11:03:04;93692.94;;;25.54;26.64
6024;BME280;3040;42.654;23.296;2023-04-24T11:05:50;93707.53;;;24.10;28.71
6024;BME280;3040;42.654;23.296;2023-04-24T11:08:23;93709.94;;;23.41;29.87
6024;BME280;3040;42.654;23.296;2023-04-24T11:10:59;93710.66;;;23.70;29.64
6024;BME280;3040;42.654;23.296;2023-04-24T11:13:27;93708.81;;;23.55;30.29
6024;BME280;3040;42.654;23.296;2023-04-24T11:16:20;93711.22;;;22.95;31.25
6024;BME280;3040;42.654;23.296;2023-04-24T11:18:50;93700.59;;;21.38;32.85
6024;BME280;3040;42.654;23.296;2023-04-24T11:21:19;93735.78;;;20.95;35.60
6024;BME280;3040;42.654;23.296;2023-04-24T11:23:46;93714.03;;;19.59;41.43
6024;BME280;3040;42.654;23.296;2023-04-24T11:26:18;93710.53;;;18.64;43.99
6024;BME280;3040;42.654;23.296;2023-04-24T11:28:47;93739.47;;;18.94;47.89
6024;BME280;3040;42.654;23.296;2023-04-24T11:31:38;93753.75;;;19.25;44.06
6024;BME280;3040;42.654;23.296;2023-04-24T11:34:10;93730.13;;;19.02;43.33
6024;BME280;3040;42.654;23.296;2023-04-24T11:36:38;93767.75;;;19.13;50.14
6024;BME280;3040;42.654;23.296;2023-04-24T11:39:05;93762.47;;;19.02;47.52
6024;BME280;3040;42.654;23.296;2023-04-24T11:41:33;93752.25;;;18.86;51.24
6024;BME280;3040;42.654;23.296;2023-04-24T11:44:01;93752.94;;;18.94;53.43
6024;BME280;3040;42.654;23.296;2023-04-24T11:46:30;93733.22;;;19.00;55.87
6024;BME280;3040;42.654;23.296;2023-04-24T11:48:59;93745.31;;;19.23;53.54
6024;BME280;3040;42.654;23.296;2023-04-24T11:51:27;93741.94;;;19.11;57.91
6024;BME280;3040;42.654;23.296;2023-04-24T11:53:54;93730.00;;;19.13;56.16
6024;BME280;3040;42.654;23.296;2023-04-24T11:56:22;93729.47;;;19.28;54.66
6024;BME280;3040;42.654;23.296;2023-04-24T11:58:51;93618.78;;;19.08;54.38
6024;BME280;3040;42.654;23.296;2023-04-24T12:01:21;93706.38;;;20.08;48.68
6024;BME280;3040;42.654;23.296;2023-04-24T12:03:49;93580.34;;;19.31;45.47
6024;BME280;3040;42.654;23.296;2023-04-24T12:06:18;93717.47;;;20.83;46.82
6024;BME280;3040;42.654;23.296;2023-04-24T12:08:46;93705.03;;;21.29;47.61
6024;BME280;3040;42.654;23.296;2023-04-24T12:11:15;93662.69;;;21.74;44.61
6024;BME280;3040;42.654;23.296;2023-04-24T12:13:43;93700.84;;;22.77;44.47
6024;BME280;3040;42.654;23.296;2023-04-24T12:16:10;93697.72;;;23.49;42.06
6024;BME280;3040;42.654;23.296;2023-04-24T12:18:42;93706.78;;;23.97;37.40
6024;BME280;3040;42.654;23.296;2023-04-24T12:21:18;93685.59;;;23.66;36.39
6024;BME280;3040;42.654;23.296;2023-04-24T12:23:45;93687.94;;;23.10;35.74
6024;BME280;3040;42.654;23.296;2023-04-24T12:26:16;93678.38;;;22.15;36.14
6024;BME280;3040;42.654;23.296;2023-04-24T12:28:46;93657.19;;;21.62;38.19
6024;BME280;3040;42.654;23.296;2023-04-24T12:31:13;93652.13;;;21.80;38.94
6024;BME280;3040;42.654;23.296;2023-04-24T12:33:40;93664.03;;;21.66;39.67
6024;BME280;3040;42.654;23.296;2023-04-24T12:36:10;93655.66;;;21.77;39.18
6024;BME280;3040;42.654;23.296;2023-04-24T12:38:39;93654.66;;;22.19;38.89
6024;BME280;3040;42.654;23.296;2023-04-24T12:41:12;93646.03;;;21.76;38.12
6024;BME280;3040;42.654;23.296;2023-04-24T12:43:50;93523.00;;;21.12;37.99
6024;BME280;3040;42.654;23.296;2023-04-24T12:46:18;93640.97;;;21.94;37.73
6024;BME280;3040;42.654;23.296;2023-04-24T12:48:44;93645.38;;;21.88;38.02
6024;BME280;3040;42.654;23.296;2023-04-24T12:51:11;93634.00;;;21.61;38.44
6024;BME280;3040;42.654;23.296;2023-04-24T12:53:39;93619.97;;;21.82;37.89
6024;BME280;3040;42.654;23.296;2023-04-24T12:56:06;93617.19;;;21.85;37.87
6024;BME280;3040;42.654;23.296;2023-04-24T12:58:33;93606.94;;;21.44;38.66
6024;BME280;3040;42.654;23.296;2023-04-24T13:01:00;93601.00;;;21.49;38.50
6024;BME280;3040;42.654;23.296;2023-04-24T13:03:27;93595.78;;;21.75;37.16
6024;BME280;3040;42.654;23.296;2023-04-24T13:05:54;93584.75;;;22.14;36.70
6024;BME280;3040;42.654;23.296;2023-04-24T13:08:21;93592.66;;;22.38;36.41
6024;BME280;3040;42.654;23.296;2023-04-24T13:10:49;93585.59;;;22.85;35.13
6024;BME280;3040;42.654;23.296;2023-04-24T13:13:17;93577.84;;;23.12;34.50
6024;BME280;3040;42.654;23.296;2023-04-24T13:15:44;93565.78;;;23.13;34.12